Flight Track Log - Related Links

Times and Time Zones

All times are in EDT time to prevent confusion due to time zone crossing. See the EJA396 flight status page for this flight to view local times or setup timezone preferences in your user account.

Time Position Orientation Groundspeed Altitude Reporting Facility
EDT Latitude Longitude Course Direction KTS MPH feet Rate Location/Type
Mon 07:45:54 PM 40.8167 -74.1500 294° West 213 245 2,200  Level New York TRACON
Mon 07:46:54 PM 40.8167 -74.2333 270° West 247 284 5,000 3,700 Climbing New York TRACON
Mon 07:47:54 PM 40.8167 -74.3333 270° West 259 298 9,600 2,900 Climbing New York TRACON
Mon 07:48:54 PM 40.8167 -74.4333 270° West 293 337 10,800 1,650 Climbing New York TRACON
Mon 07:49:54 PM 40.8667 -74.5167 308° West 302 348 12,900 2,100 Climbing New York TRACON
Mon 07:50:54 PM 40.9500 -74.5667 336° Northwest 305 351 15,000 1,200 Climbing New York TRACON
Mon 07:51:00 PM 40.8935 -74.8803 294° West  Level FlightAware Approximate
Mon 07:51:54 PM 40.9833 -74.6667 294° West 301 346 15,300  Level New York TRACON
Mon 07:52:54 PM 40.9833 -74.7667 270° West 296 341 16,000 450 Climbing New York TRACON
Mon 07:53:54 PM 40.9833 -74.8833 270° West 292 336 16,200 411 Climbing New York TRACON
Mon 07:55:20 PM 40.9494 -75.0267 253° West 302 348 17,000 869 Climbing New York Center
Mon 07:56:19 PM 40.9250 -75.1294 253° West 302 348 18,300 1,650 Climbing New York Center
Mon 07:57:20 PM 40.9047 -75.2214 254° West 296 341 20,300 1,511 Climbing New York Center
Mon 07:58:30 PM 40.8744 -75.3650 254° West 315 362 21,600 1,455 Climbing New York Center
Mon 07:59:32 PM 40.8442 -75.4944 253° West 348 400 23,500 1,770 Climbing New York Center
Mon 08:00:32 PM 40.8139 -75.6242 253° West 370 426 25,200 1,780 Climbing New York Center
Mon 08:01:30 PM 40.7833 -75.7589 253° West 378 435 27,000 1,664 Climbing New York Center
Mon 08:02:31 PM 40.7511 -75.8800 251° West 372 428 28,500 1,488 Climbing New York Center
Mon 08:03:31 PM 40.7231 -75.9983 253° West 360 414 30,000 1,388 Climbing New York Center
Mon 08:04:32 PM 40.6953 -76.1083 252° West 338 389 31,300 1,091 Climbing New York Center
Mon 08:05:32 PM 40.6711 -76.2214 254° West 331 381 32,200 966 Climbing New York Center
Mon 08:06:30 PM 40.6767 -76.3314 274° West 313 360 33,200 915 Climbing New York Center
Mon 08:07:30 PM 40.6942 -76.4450 282° West 313 360 34,000 397 Climbing New York Center
Mon 08:08:31 PM 40.7133 -76.5644 282° West 321 369 34,000  Level New York Center
Mon 08:09:31 PM 40.7319 -76.6919 281° West 334 384 34,000  Level New York Center
Mon 08:10:32 PM 40.7522 -76.8281 281° West 362 417 34,000  Level New York Center
Mon 08:11:32 PM 40.7717 -76.9750 280° West 390 449 34,000  Level New York Center
Mon 08:12:32 PM 40.7947 -77.1281 281° West 413 475 34,000  Level New York Center
Mon 08:13:32 PM 40.8178 -77.2808 281° West 424 488 34,000  Level New York Center
Mon 08:14:30 PM 40.8389 -77.4256 281° West 418 481 34,000  Level New York Center
Mon 08:15:32 PM 40.8594 -77.5758 280° West 413 475 34,000 958 Level New York Center
Mon 08:16:29 PM 40.8761 -77.7203 279° West 413 475 35,900 833 Climbing New York Center
Mon 08:17:56 PM 40.9056 -77.9236 281° West 389 448 36,000 41 Climbing Cleveland Center
Mon 08:18:56 PM 40.9256 -78.0739 280° West 404 465 36,000 50 Level Cleveland Center
Mon 08:19:56 PM 40.9500 -78.2436 281° West 423 487 36,100 750 Climbing Cleveland Center
Mon 08:20:56 PM 40.9675 -78.3858 279° West 423 487 37,500 950 Climbing Cleveland Center
Mon 08:21:56 PM 40.9828 -78.5311 278° West 413 475 38,000 250 Climbing Cleveland Center
Mon 08:22:56 PM 41.0019 -78.6792 280° West 408 470 38,000 250 Level Cleveland Center
Mon 08:23:56 PM 41.0189 -78.8244 279° West 408 470 38,500 750 Climbing Cleveland Center
Mon 08:24:56 PM 41.0356 -78.9672 279° West 401 461 39,500 750 Climbing Cleveland Center
Mon 08:25:56 PM 41.0519 -79.1044 279° West 396 456 40,000 250 Climbing Cleveland Center
Mon 08:26:56 PM 41.0664 -79.2475 278° West 391 450 40,000  Level Cleveland Center
Mon 08:27:56 PM 41.0844 -79.3903 280° West 391 450 40,000  Level Cleveland Center
Mon 08:28:56 PM 41.1006 -79.5333 279° West 391 450 40,000  Level Cleveland Center
Mon 08:29:56 PM 41.1142 -79.6764 277° West 391 450 40,000  Level Cleveland Center
Mon 08:30:56 PM 41.1275 -79.7892 279° West 391 450 40,000  Level Cleveland Center
Mon 08:31:56 PM 41.1431 -79.9461 278° West 391 450 40,000  Level Cleveland Center
Mon 08:32:56 PM 41.1606 -80.0867 279° West 386 444 40,000  Level Cleveland Center
Mon 08:33:56 PM 41.1736 -80.2272 277° West 386 444 40,000  Level Cleveland Center
Mon 08:34:56 PM 41.1886 -80.3678 278° West 386 444 40,000  Level Cleveland Center
Mon 08:35:56 PM 41.2033 -80.5253 277° West 386 444 40,000  Level Cleveland Center
Mon 08:36:56 PM 41.2178 -80.6658 278° West 391 450 40,000  Level Cleveland Center
Mon 08:37:56 PM 41.2303 -80.8039 277° West 386 444 40,000  Level Cleveland Center
Mon 08:38:56 PM 41.2444 -80.9422 278° West 386 444 40,000  Level Cleveland Center
Mon 08:39:56 PM 41.2564 -81.0858 276° West 386 444 40,000  Level Cleveland Center
Mon 08:40:56 PM 41.2722 -81.2242 279° West 386 444 40,000  Level Cleveland Center
Mon 08:41:56 PM 41.2839 -81.3594 277° West 392 451 40,000  Level Cleveland Center
Mon 08:42:56 PM 41.2997 -81.4925 279° West 392 451 40,000  Level Cleveland Center
Mon 08:43:56 PM 41.3111 -81.6364 276° West 392 451 40,000  Level Cleveland Center
Mon 08:44:56 PM 41.3261 -81.7942 277° West 392 451 40,000  Level Cleveland Center
Mon 08:45:56 PM 41.3433 -81.9272 280° West 392 451 40,000  Level Cleveland Center
Mon 08:46:56 PM 41.3833 -82.0692 291° West 392 451 40,000  Level Cleveland Center
Mon 08:47:56 PM 41.4292 -82.2281 291° West 413 475 40,000  Level Cleveland Center
Mon 08:48:56 PM 41.4728 -82.3706 292° West 413 475 40,000  Level Cleveland Center
Mon 08:49:56 PM 41.5183 -82.5133 293° West 418 481 40,000  Level Cleveland Center
Mon 08:50:56 PM 41.5619 -82.6533 293° West 418 481 40,000  Level Cleveland Center
Mon 08:51:56 PM 41.6069 -82.7992 292° West 418 481 40,000  Level Cleveland Center
Mon 08:52:56 PM 41.6481 -82.9425 291° West 412 474 40,000  Level Cleveland Center
Mon 08:53:56 PM 41.6908 -83.0858 292° West 417 480 40,000  Level Cleveland Center
Mon 08:54:56 PM 41.7314 -83.2236 292° West 412 474 40,000  Level Cleveland Center
Mon 08:55:56 PM 41.7761 -83.3647 293° West 412 474 40,000  Level Cleveland Center
Mon 08:56:56 PM 41.8183 -83.5061 292° West 412 474 40,000  Level Cleveland Center
Mon 08:57:56 PM 41.8547 -83.6303 292° West 412 474 40,000  Level Cleveland Center
Mon 08:58:56 PM 41.8947 -83.7717 291° West 412 474 40,000  Level Cleveland Center
Mon 08:59:56 PM 41.9367 -83.9078 293° West 412 474 40,000  Level Cleveland Center
Mon 09:01:27 PM 42.0042 -84.1306 292° West 404 465 40,000  Level Chicago Center
Mon 09:02:29 PM 42.0450 -84.2717 291° West 406 467 40,000  Level Chicago Center
Mon 09:03:31 PM 42.0856 -84.4147 291° West 409 471 40,000  Level Chicago Center
Mon 09:04:32 PM 42.1278 -84.5569 292° West 410 472 40,000  Level Chicago Center
Mon 09:05:34 PM 42.1683 -84.6994 291° West 407 468 40,000  Level Chicago Center
Mon 09:06:36 PM 42.2081 -84.8442 290° West 411 473 40,000  Level Chicago Center
Mon 09:07:38 PM 42.2569 -85.0169 291° West 411 473 40,000  Level Chicago Center
Mon 09:08:40 PM 42.2978 -85.1614 291° West 412 474 40,000  Level Chicago Center
Mon 09:09:42 PM 42.3381 -85.3056 291° West 410 472 40,000  Level Chicago Center
Mon 09:10:44 PM 42.3786 -85.4508 291° West 413 475 40,000  Level Chicago Center
Mon 09:11:46 PM 42.4169 -85.5964 290° West 410 472 40,000  Level Chicago Center
Mon 09:13:00 PM 42.4612 -85.7616 290° West  Level FlightAware Approximate
Mon 09:15:54 PM 42.5819 -86.2036 290° West 414 476 40,000  Level Chicago Center
Mon 09:16:56 PM 42.6208 -86.3450 291° West 402 463 40,000  Level Chicago Center
Mon 09:17:58 PM 42.6583 -86.4872 290° West 399 459 40,000  Level Chicago Center
Mon 09:19:00 PM 42.6967 -86.6303 290° West 404 465 40,000  Level Chicago Center
Mon 09:20:00 PM 42.7077 -86.7035 290° West  Level FlightAware Approximate
Mon 09:20:02 PM 42.7339 -86.7744 289° West 405 466 40,000  Level Chicago Center
Mon 09:21:00 PM 42.8939 -87.4182 290° West  Level FlightAware Approximate
Mon 09:21:04 PM 42.7703 -86.9181 289° West 405 466 40,000  Level Chicago Center
Mon 09:22:00 PM 43.0792 -88.1357 290° West  Level FlightAware Approximate
Mon 09:22:06 PM 42.8158 -87.0903 290° West 405 466 40,000  Level Chicago Center
Mon 09:23:08 PM 42.8533 -87.2353 289° West 405 466 40,000  Level Chicago Center
Mon 09:24:10 PM 42.8911 -87.3831 289° West 411 473 40,000  Level Chicago Center
Mon 09:25:12 PM 42.9267 -87.5211 289° West 406 467 40,000  Level Chicago Center
Mon 09:26:14 PM 42.9697 -87.6936 289° West 408 470 40,000  Level Chicago Center
Mon 09:27:16 PM 43.0044 -87.8344 289° West 393 452 40,000  Level Chicago Center
Mon 09:28:18 PM 43.0392 -87.9717 289° West 382 440 40,000  Level Chicago Center
Mon 09:29:20 PM 43.0722 -88.1056 289° West 372 428 40,000  Level Chicago Center
Mon 09:30:22 PM 43.1042 -88.2375 288° West 364 419 40,000  Level Chicago Center
Mon 09:31:24 PM 43.1667 -88.3706 303° West 357 411 40,000  Level Chicago Center
Mon 09:32:26 PM 43.2281 -88.4764 309° West 351 404 40,000 48 Level Chicago Center
Mon 09:33:28 PM 43.2919 -88.5847 309° West 359 413 40,100  Climbing Chicago Center
Mon 09:34:30 PM 43.3539 -88.6931 308° West 356 410 40,000 -48 Descending Chicago Center
Mon 09:35:32 PM 43.4161 -88.7983 309° West 351 404 40,000  Level Chicago Center
Mon 09:36:34 PM 43.4797 -88.9078 309° West 361 415 40,000  Level Chicago Center
Mon 09:37:36 PM 43.5439 -89.0197 308° West 369 425 40,000  Level Chicago Center
Mon 09:38:38 PM 43.6081 -89.1308 309° West 368 423 40,000  Level Chicago Center
Mon 09:39:40 PM 43.6794 -89.2569 308° West 359 413 40,000  Level Chicago Center
Mon 09:40:42 PM 43.7400 -89.3633 308° West 353 406 40,000  Level Chicago Center
Mon 09:41:22 PM 43.7786 -89.4331 308° West 348 400 40,000  Level Minneapolis Center
Mon 09:42:24 PM 43.8378 -89.5367 308° West 345 397 40,000 -290 Level Minneapolis Center
Mon 09:43:26 PM 43.8964 -89.6406 308° West 342 394 39,400 -1,210 Descending Minneapolis Center
Mon 09:44:28 PM 43.9600 -89.7536 308° West 366 421 37,500 -1,659 Descending Minneapolis Center
Mon 09:45:29 PM 44.0292 -89.8769 308° West 397 457 36,000 -732 Descending Minneapolis Center
Mon 09:46:31 PM 44.1067 -90.0169 308° West 394 453 36,000  Level Minneapolis Center
Mon 09:47:33 PM 44.1717 -90.1356 307° West 387 445 36,000  Level Minneapolis Center
Mon 09:48:34 PM 44.2381 -90.2547 308° West 387 445 36,000  Level Minneapolis Center
Mon 09:49:36 PM 44.3039 -90.3747 308° West 389 448 36,000  Level Minneapolis Center
Mon 09:50:38 PM 44.3694 -90.4947 307° West 390 449 36,000 -146 Level Minneapolis Center
Mon 09:51:39 PM 44.4369 -90.6161 308° West 393 452 35,700 -1,122 Descending Minneapolis Center
Mon 09:52:41 PM 44.5067 -90.7458 307° West 411 473 33,700 -2,098 Descending Minneapolis Center
Mon 09:53:42 PM 44.5900 -90.9028 307° West 432 497 31,400 -1,925 Descending Minneapolis Center
Mon 09:54:55 PM 44.6625 -91.0342 308° West 429 494 29,400 -1,956 Descending Minneapolis Center
Mon 09:55:57 PM 44.7467 -91.1919 307° West 423 487 27,000 -2,226 Descending Minneapolis Center
Mon 09:56:59 PM 44.8147 -91.3206 307° West 418 481 24,800 -2,098 Descending Minneapolis Center
Mon 09:58:00 PM 44.8789 -91.4461 306° West 408 470 22,700 -2,016 Descending Minneapolis Center
Mon 09:59:01 PM 44.9183 -91.5867 292° West 399 459 20,700 -1,967 Descending Minneapolis Center
Mon 10:00:02 PM 44.9431 -91.7258 284° West 377 434 18,700 -1,951 Descending Minneapolis Center
Mon 10:01:04 PM 44.9706 -91.8658 286° West 372 428 16,700 -2,049 Descending Minneapolis Center
Mon 10:02:05 PM 45.0003 -92.0250 285° West 351 404 14,500 -1,967 Descending Minneapolis Center
Mon 10:03:06 PM 45.0242 -92.1531 285° West 341 392 12,700 -1,721 Descending Minneapolis Center
Mon 10:04:07 PM 45.0464 -92.2764 284° West 328 377 11,000 -829 Descending Minneapolis Center
Mon 10:05:09 PM 45.0294 -92.4086 260° West 341 392 11,000 -439 Level Minneapolis Center
Mon 10:06:10 PM 44.9831 -92.5108 237° Southwest 307 353 10,100 -934 Descending Minneapolis Center
Mon 10:07:11 PM 44.9408 -92.6003 236° Southwest 278 320 9,100 -976 Descending Minneapolis Center
Mon 10:08:13 PM 44.8878 -92.6786 226° Southwest 277 319 8,100 -683 Descending Minneapolis Center
Mon 10:09:14 PM 44.8294 -92.7383 216° Southwest 260 299 7,700 -896 Descending Minneapolis Center
Mon 10:10:27 PM 44.7847 -92.7997 224° Southwest 234 269 6,100 -1,200 Descending Minneapolis Center
Mon 10:11:29 PM 44.7597 -92.8967 250° West 219 252 5,000 -780 Descending Minneapolis Center
Mon 10:12:30 PM 44.7744 -92.9728 285° West 178 205 4,500 -689 Descending Minneapolis Center
Mon 10:13:31 PM 44.7992 -93.0314 301° West 175 201 3,600 -885 Descending Minneapolis Center
Mon 10:14:32 PM 44.8236 -93.0864 302° West 169 194 2,700 -836 Descending Minneapolis Center
Mon 10:15:33 PM 44.8475 -93.1417 301° West 168 193 1,900 -732 Descending Minneapolis Center
Mon 10:16:35 PM 44.8644 -93.1811 301° West 116 133 1,200 -677 Descending Minneapolis Center

Login

Don't have an account? Register now (free) for customized features, flight alerts, and more!